createdAt,value
2018-12-24T00:00:30.462Z,988.62
2018-12-24T00:01:30.420Z,988.57
2018-12-24T00:02:30.413Z,988.50
2018-12-24T00:03:30.396Z,988.51
2018-12-24T00:04:30.392Z,988.52
2018-12-24T00:05:30.409Z,988.57
2018-12-24T00:06:30.367Z,988.65
2018-12-24T00:07:30.356Z,988.61
2018-12-24T00:08:30.359Z,988.66
2018-12-24T00:09:30.336Z,988.67
2018-12-24T00:10:30.350Z,988.66
2018-12-24T00:11:30.315Z,988.71
2018-12-24T00:12:30.323Z,988.69
2018-12-24T00:13:30.295Z,988.73
2018-12-24T00:14:30.277Z,988.83
2018-12-24T00:15:30.278Z,988.81
2018-12-24T00:16:30.282Z,988.86
2018-12-24T00:17:30.248Z,988.86
2018-12-24T00:18:30.251Z,988.83
2018-12-24T00:19:30.223Z,988.82
2018-12-24T00:20:30.211Z,988.83
2018-12-24T00:21:30.222Z,988.83
2018-12-24T00:22:30.191Z,988.90
2018-12-24T00:23:30.177Z,989.01
2018-12-24T00:24:30.182Z,989.02
2018-12-24T00:25:30.172Z,989.00
2018-12-24T00:26:30.179Z,989.04
2018-12-24T00:27:30.134Z,989.04
2018-12-24T00:28:30.124Z,989.13
2018-12-24T00:29:30.116Z,989.07
2018-12-24T00:30:30.103Z,989.06
2018-12-24T00:31:30.094Z,989.17
2018-12-24T00:32:30.111Z,989.20
2018-12-24T00:33:30.077Z,989.20
2018-12-24T00:34:30.057Z,989.21
2018-12-24T00:35:30.057Z,989.25
2018-12-24T00:36:30.037Z,989.28
2018-12-24T00:37:30.050Z,989.32
2018-12-24T00:38:30.020Z,989.33
2018-12-24T00:39:30.007Z,989.31
2018-12-24T00:40:29.994Z,989.37
2018-12-24T00:41:29.987Z,989.39
2018-12-24T00:42:29.994Z,989.43
2018-12-24T00:43:29.961Z,989.42
2018-12-24T00:44:29.948Z,989.38
2018-12-24T00:45:29.946Z,989.49
2018-12-24T00:46:29.925Z,989.58
2018-12-24T00:47:29.938Z,989.69
2018-12-24T00:48:29.905Z,989.67
2018-12-24T00:49:29.894Z,989.73
2018-12-24T00:50:29.891Z,989.71
2018-12-24T00:51:29.887Z,989.75
2018-12-24T00:52:29.895Z,989.74
2018-12-24T00:53:29.854Z,989.81
2018-12-24T00:54:29.840Z,989.83
2018-12-24T00:55:29.828Z,989.88
2018-12-24T00:56:29.829Z,989.91
2018-12-24T00:57:29.807Z,989.89
2018-12-24T00:58:29.817Z,989.91
2018-12-24T00:59:29.785Z,989.96
2018-12-24T01:00:29.775Z,989.92
2018-12-24T01:01:29.761Z,989.96
2018-12-24T01:02:29.752Z,990.00
2018-12-24T01:03:29.776Z,989.95
2018-12-24T01:04:29.731Z,990.03
2018-12-24T01:05:29.717Z,990.06
2018-12-24T01:06:29.709Z,990.12
2018-12-24T01:07:29.702Z,990.20
2018-12-24T01:08:29.721Z,990.28
2018-12-24T01:09:29.680Z,990.19
2018-12-24T01:10:29.661Z,990.23
2018-12-24T01:11:29.662Z,990.27
2018-12-24T01:12:29.639Z,990.29
2018-12-24T01:13:29.629Z,990.39
2018-12-24T01:14:29.642Z,990.48
2018-12-24T01:15:29.618Z,990.44
2018-12-24T01:16:29.596Z,990.48
2018-12-24T01:17:29.586Z,990.47
2018-12-24T01:18:29.573Z,990.42
2018-12-24T01:19:29.586Z,990.38
2018-12-24T01:20:29.552Z,990.42
2018-12-24T01:21:29.548Z,990.51
2018-12-24T01:22:29.538Z,990.58
2018-12-24T01:23:29.518Z,990.61
2018-12-24T01:24:29.530Z,990.69
2018-12-24T01:25:29.495Z,990.82
2018-12-24T01:26:29.495Z,990.79
2018-12-24T01:27:29.498Z,990.80
2018-12-24T01:28:29.461Z,990.84
2018-12-24T01:29:29.472Z,990.87
2018-12-24T01:30:29.444Z,990.85
2018-12-24T01:31:29.435Z,990.90
2018-12-24T01:32:29.420Z,990.93
2018-12-24T01:33:29.428Z,990.97
2018-12-24T01:34:29.417Z,991.00
2018-12-24T01:35:29.386Z,991.00
2018-12-24T01:36:29.373Z,991.03
2018-12-24T01:37:29.363Z,991.08
2018-12-24T01:38:29.352Z,991.18
2018-12-24T01:39:29.398Z,991.20
2018-12-24T01:40:29.328Z,991.27
2018-12-24T01:41:29.318Z,991.30
2018-12-24T01:42:33.410Z,991.33
2018-12-24T01:43:29.294Z,991.37
2018-12-24T01:44:29.287Z,991.36
2018-12-24T01:45:29.316Z,991.48
2018-12-24T01:46:29.271Z,991.47
2018-12-24T01:47:29.251Z,991.56
2018-12-24T01:48:29.239Z,991.50
2018-12-24T01:49:29.229Z,991.52
2018-12-24T01:50:29.246Z,991.59
2018-12-24T01:51:29.222Z,991.58
2018-12-24T01:52:29.194Z,991.56
2018-12-24T01:53:29.182Z,991.59
2018-12-24T01:54:29.172Z,991.62
2018-12-24T01:55:29.186Z,991.63
2018-12-24T01:56:29.150Z,991.64
2018-12-24T01:57:29.169Z,991.69
2018-12-24T01:58:29.127Z,991.63
2018-12-24T01:59:29.116Z,991.70
2018-12-24T02:00:29.143Z,991.70
2018-12-24T02:01:29.095Z,991.66
2018-12-24T02:02:29.083Z,991.68
2018-12-24T02:03:29.118Z,991.70
2018-12-24T02:04:29.065Z,991.66
2018-12-24T02:05:29.052Z,991.69
2018-12-24T02:06:29.063Z,991.75
2018-12-24T02:07:29.028Z,991.79
2018-12-24T02:08:29.019Z,991.76
2018-12-24T02:09:29.005Z,991.80
2018-12-24T02:10:29.010Z,991.86
2018-12-24T02:11:29.006Z,991.83
2018-12-24T02:12:28.976Z,991.87
2018-12-24T02:13:28.964Z,991.86
2018-12-24T02:14:28.952Z,991.95
2018-12-24T02:15:28.940Z,991.93
2018-12-24T02:16:29.250Z,992.01
2018-12-24T02:17:28.918Z,992.01
2018-12-24T02:18:28.908Z,992.05
2018-12-24T02:19:28.897Z,992.05
2018-12-24T02:20:28.899Z,992.09
2018-12-24T02:21:28.874Z,992.09
2018-12-24T02:22:28.887Z,992.11
2018-12-24T02:23:28.873Z,992.19
2018-12-24T02:24:28.843Z,992.17
2018-12-24T02:25:28.830Z,992.23
2018-12-24T02:26:28.818Z,992.18
2018-12-24T02:27:28.832Z,992.20
2018-12-24T02:28:28.796Z,992.18
2018-12-24T02:29:28.798Z,992.29
2018-12-24T02:30:28.779Z,992.22
2018-12-24T02:31:28.765Z,992.25
2018-12-24T02:32:28.777Z,992.28
2018-12-24T02:33:28.742Z,992.31
2018-12-24T02:34:28.733Z,992.30
2018-12-24T02:35:28.731Z,992.31
2018-12-24T02:36:28.711Z,992.34
2018-12-24T02:37:28.737Z,992.35
2018-12-24T02:38:28.686Z,992.38
2018-12-24T02:39:28.685Z,992.35
2018-12-24T02:40:28.663Z,992.37
2018-12-24T02:41:28.664Z,992.37
2018-12-24T02:42:28.670Z,992.36
2018-12-24T02:43:28.654Z,992.41
2018-12-24T02:44:28.619Z,992.43
2018-12-24T02:45:28.613Z,992.48
2018-12-24T02:46:28.604Z,992.47
2018-12-24T02:47:28.587Z,992.54
2018-12-24T02:48:28.633Z,992.54
2018-12-24T02:49:28.570Z,992.49
2018-12-24T02:50:28.554Z,992.57
2018-12-24T02:51:28.543Z,992.59
2018-12-24T02:52:28.533Z,992.65
2018-12-24T02:53:28.544Z,992.63
2018-12-24T02:54:28.512Z,992.61
2018-12-24T02:55:28.501Z,992.61
2018-12-24T02:56:28.492Z,992.65
2018-12-24T02:57:28.635Z,992.63
2018-12-24T02:58:28.506Z,992.64
2018-12-24T02:59:28.477Z,992.70
2018-12-24T03:00:28.445Z,992.71
2018-12-24T03:01:28.435Z,992.71
2018-12-24T03:02:28.433Z,992.78
2018-12-24T03:03:28.452Z,992.79
2018-12-24T03:04:28.428Z,992.82
2018-12-24T03:05:28.404Z,992.87
2018-12-24T03:06:28.381Z,992.93
2018-12-24T03:07:28.397Z,992.97
2018-12-24T03:08:28.359Z,992.92
2018-12-24T03:09:28.368Z,992.95
2018-12-24T03:10:28.373Z,993.02
2018-12-24T03:11:28.333Z,992.98
2018-12-24T03:12:28.313Z,992.99
2018-12-24T03:13:28.324Z,992.95
2018-12-24T03:14:28.477Z,993.02
2018-12-24T03:15:28.290Z,993.04
2018-12-24T03:16:28.278Z,993.00
2018-12-24T03:17:28.261Z,993.16
2018-12-24T03:18:28.274Z,993.06
2018-12-24T03:19:28.239Z,993.03
2018-12-24T03:20:28.252Z,993.08
2018-12-24T03:21:28.215Z,993.10
2018-12-24T03:22:28.226Z,993.14
2018-12-24T03:23:28.192Z,993.15
2018-12-24T03:24:28.180Z,993.15
2018-12-24T03:25:28.194Z,993.14
2018-12-24T03:26:28.161Z,993.15
2018-12-24T03:27:28.147Z,993.18
2018-12-24T03:28:28.172Z,993.15
2018-12-24T03:29:28.127Z,993.17
2018-12-24T03:30:28.144Z,993.22
2018-12-24T03:31:28.109Z,993.20
2018-12-24T03:32:28.097Z,993.17
2018-12-24T03:33:28.090Z,993.21
2018-12-24T03:34:28.103Z,993.28
2018-12-24T03:35:28.103Z,993.33
2018-12-24T03:36:28.054Z,993.34
2018-12-24T03:37:28.042Z,993.33
2018-12-24T03:38:28.031Z,993.33
2018-12-24T03:39:28.025Z,993.34
2018-12-24T03:40:28.042Z,993.36
2018-12-24T03:41:28.021Z,993.34
2018-12-24T03:42:28.013Z,993.34
2018-12-24T03:43:27.974Z,993.36
2018-12-24T03:44:27.968Z,993.36
2018-12-24T03:45:27.997Z,993.37
2018-12-24T03:46:27.954Z,993.38
2018-12-24T03:47:28.057Z,993.37
2018-12-24T03:48:27.918Z,993.48
2018-12-24T03:49:27.910Z,993.43
2018-12-24T03:50:27.895Z,993.42
2018-12-24T03:51:27.908Z,993.45
2018-12-24T03:52:27.894Z,993.53
2018-12-24T03:53:27.867Z,993.54
2018-12-24T03:54:27.852Z,993.50
2018-12-24T03:55:27.844Z,993.51
2018-12-24T03:56:27.854Z,993.58
2018-12-24T03:57:27.817Z,993.56
2018-12-24T03:58:27.810Z,993.59
2018-12-24T03:59:27.824Z,993.59
2018-12-24T04:00:27.820Z,993.59
2018-12-24T04:01:27.813Z,993.67
2018-12-24T04:02:27.762Z,993.66
2018-12-24T04:03:27.763Z,993.68
2018-12-24T04:04:27.742Z,993.69
2018-12-24T04:05:27.743Z,993.61
2018-12-24T04:06:27.720Z,993.60
2018-12-24T04:07:27.734Z,993.72
2018-12-24T04:08:27.702Z,993.87
2018-12-24T04:09:27.685Z,993.81
2018-12-24T04:10:27.706Z,993.88
2018-12-24T04:11:27.684Z,993.85
2018-12-24T04:12:27.680Z,993.89
2018-12-24T04:13:27.643Z,993.88
2018-12-24T04:14:27.633Z,993.89
2018-12-24T04:15:27.623Z,993.90
2018-12-24T04:16:27.610Z,993.93
2018-12-24T04:17:27.641Z,993.93
2018-12-24T04:18:27.599Z,993.96
2018-12-24T04:19:27.579Z,993.99
2018-12-24T04:20:27.566Z,994.02
2018-12-24T04:21:27.554Z,994.04
2018-12-24T04:22:27.566Z,994.11
2018-12-24T04:23:27.564Z,994.17
2018-12-24T04:24:27.521Z,994.20
2018-12-24T04:25:27.509Z,994.30
2018-12-24T04:26:27.501Z,994.29
2018-12-24T04:27:27.527Z,994.33
2018-12-24T04:28:27.477Z,994.32
2018-12-24T04:29:27.481Z,994.37
2018-12-24T04:30:27.458Z,994.40
2018-12-24T04:31:27.461Z,994.39
2018-12-24T04:32:27.435Z,994.40
2018-12-24T04:33:27.446Z,994.51
2018-12-24T04:34:27.414Z,994.47
2018-12-24T04:35:27.422Z,994.49
2018-12-24T04:36:27.394Z,994.56
2018-12-24T04:37:27.380Z,994.57
2018-12-24T04:38:27.404Z,994.59
2018-12-24T04:39:27.364Z,994.57
2018-12-24T04:40:27.345Z,994.55
2018-12-24T04:41:27.366Z,994.59
2018-12-24T04:42:27.322Z,994.65
2018-12-24T04:43:32.171Z,994.61
2018-12-24T04:44:28.303Z,994.60
2018-12-24T04:45:27.292Z,994.70
2018-12-24T04:46:27.280Z,994.69
2018-12-24T04:47:27.270Z,994.74
2018-12-24T04:48:27.312Z,994.73
2018-12-24T04:49:27.247Z,994.75
2018-12-24T04:50:27.235Z,994.77
2018-12-24T04:51:27.226Z,994.85
2018-12-24T04:52:27.213Z,994.88
2018-12-24T04:53:27.234Z,994.87
2018-12-24T04:54:27.218Z,994.95
2018-12-24T04:55:27.182Z,994.96
2018-12-24T04:56:27.197Z,994.99
2018-12-24T04:57:27.166Z,994.95
2018-12-24T04:58:27.162Z,994.96
2018-12-24T04:59:27.166Z,994.99
2018-12-24T05:00:27.124Z,995.04
2018-12-24T05:01:27.113Z,995.03
2018-12-24T05:02:27.119Z,995.09
2018-12-24T05:03:27.093Z,995.09
2018-12-24T05:04:27.106Z,995.13
2018-12-24T05:05:27.075Z,995.13
2018-12-24T05:06:27.060Z,995.16
2018-12-24T05:07:27.049Z,995.23
2018-12-24T05:08:27.069Z,995.25
2018-12-24T05:09:27.062Z,995.25
2018-12-24T05:10:27.017Z,995.33
2018-12-24T05:11:27.084Z,995.31
2018-12-24T05:12:26.992Z,995.31
2018-12-24T05:13:26.982Z,995.36
2018-12-24T05:14:26.973Z,995.40
2018-12-24T05:15:27.020Z,995.41
2018-12-24T05:16:26.949Z,995.50
2018-12-24T05:17:26.938Z,995.47
2018-12-24T05:18:26.928Z,995.45
2018-12-24T05:19:26.918Z,995.51
2018-12-24T05:20:26.930Z,995.55
2018-12-24T05:21:26.904Z,995.55
2018-12-24T05:22:26.885Z,995.59
2018-12-24T05:23:26.878Z,995.60
2018-12-24T05:24:26.862Z,995.66
2018-12-24T05:25:26.875Z,995.69
2018-12-24T05:26:26.839Z,995.77
2018-12-24T05:27:26.842Z,995.83
2018-12-24T05:28:26.815Z,995.86
2018-12-24T05:29:26.810Z,995.86
2018-12-24T05:30:26.819Z,995.87
2018-12-24T05:31:26.785Z,995.86
2018-12-24T05:32:26.784Z,995.87
2018-12-24T05:33:26.782Z,995.89
2018-12-24T05:34:26.752Z,995.91
2018-12-24T05:35:26.788Z,995.93
2018-12-24T05:36:26.730Z,996.00
2018-12-24T05:37:26.719Z,995.98
2018-12-24T05:38:26.720Z,996.03
2018-12-24T05:39:26.706Z,996.07
2018-12-24T05:40:26.724Z,996.08
2018-12-24T05:41:26.705Z,996.11
2018-12-24T05:42:26.666Z,996.09
2018-12-24T05:43:26.652Z,996.08
2018-12-24T05:44:26.643Z,996.11
2018-12-24T05:45:26.644Z,996.15
2018-12-24T05:46:26.647Z,996.15
2018-12-24T05:47:26.637Z,996.16
2018-12-24T05:48:26.598Z,996.18
2018-12-24T05:49:26.599Z,996.21
2018-12-24T05:50:26.589Z,996.25
2018-12-24T05:51:26.590Z,996.27
2018-12-24T05:52:26.554Z,996.24
2018-12-24T05:53:26.560Z,996.24
2018-12-24T05:54:26.534Z,996.32
2018-12-24T05:55:26.521Z,996.34
2018-12-24T05:56:26.532Z,996.36
2018-12-24T05:57:26.499Z,996.33
2018-12-24T05:58:26.489Z,996.41
2018-12-24T05:59:26.508Z,996.43
2018-12-24T06:00:26.466Z,996.45
2018-12-24T06:01:26.498Z,996.48
2018-12-24T06:02:26.456Z,996.51
2018-12-24T06:03:26.435Z,996.49
2018-12-24T06:04:26.424Z,996.54
2018-12-24T06:05:26.428Z,996.54
2018-12-24T06:06:26.403Z,996.55
2018-12-24T06:07:26.417Z,996.56
2018-12-24T06:08:26.379Z,996.57
2018-12-24T06:09:26.371Z,996.66
2018-12-24T06:10:26.361Z,996.70
2018-12-24T06:11:26.367Z,996.71
2018-12-24T06:12:26.369Z,996.73
2018-12-24T06:13:26.325Z,996.74
2018-12-24T06:14:26.315Z,996.81
2018-12-24T06:15:26.308Z,996.83
2018-12-24T06:16:26.295Z,996.81
2018-12-24T06:17:26.330Z,996.78
2018-12-24T06:18:26.270Z,996.82
2018-12-24T06:19:26.260Z,996.84
2018-12-24T06:20:26.252Z,996.83
2018-12-24T06:21:26.239Z,996.82
2018-12-24T06:22:26.249Z,996.88
2018-12-24T06:23:26.231Z,996.85
2018-12-24T06:24:26.207Z,996.98
2018-12-24T06:25:26.194Z,996.94
2018-12-24T06:26:26.185Z,997.01
2018-12-24T06:27:26.207Z,997.04
2018-12-24T06:28:26.169Z,997.10
2018-12-24T06:29:26.182Z,997.03
2018-12-24T06:30:26.138Z,997.09
2018-12-24T06:31:26.132Z,997.18
2018-12-24T06:32:26.115Z,997.17
2018-12-24T06:33:26.147Z,997.20
2018-12-24T06:34:26.096Z,997.21
2018-12-24T06:35:26.115Z,997.24
2018-12-24T06:36:26.094Z,997.24
2018-12-24T06:37:26.063Z,997.28
2018-12-24T06:38:26.081Z,997.33
2018-12-24T06:39:26.039Z,997.35
2018-12-24T06:40:26.029Z,997.44
2018-12-24T06:41:26.029Z,997.47
2018-12-24T06:42:26.010Z,997.46
2018-12-24T06:43:26.049Z,997.49
2018-12-24T06:44:25.987Z,997.48
2018-12-24T06:45:25.976Z,997.49
2018-12-24T06:46:25.961Z,997.47
2018-12-24T06:47:25.955Z,997.51
2018-12-24T06:48:25.964Z,997.53
2018-12-24T06:49:25.953Z,997.51
2018-12-24T06:50:25.934Z,997.53
2018-12-24T06:51:25.907Z,997.53
2018-12-24T06:52:25.984Z,997.57
2018-12-24T06:53:25.887Z,997.58
2018-12-24T06:54:25.913Z,997.61
2018-12-24T06:55:25.864Z,997.63
2018-12-24T06:56:25.854Z,997.69
2018-12-24T06:57:25.841Z,997.69
2018-12-24T06:58:25.831Z,997.65
2018-12-24T06:59:25.844Z,997.72
2018-12-24T07:00:25.822Z,997.76
2018-12-24T07:01:25.797Z,997.75
2018-12-24T07:02:25.786Z,997.81
2018-12-24T07:03:25.778Z,997.81
2018-12-24T07:04:25.788Z,997.88
2018-12-24T07:05:25.756Z,997.89
2018-12-24T07:06:25.761Z,997.92
2018-12-24T07:07:25.734Z,997.92
2018-12-24T07:08:25.722Z,997.90
2018-12-24T07:09:25.749Z,997.92
2018-12-24T07:10:25.699Z,997.95
2018-12-24T07:11:25.689Z,997.96
2018-12-24T07:12:25.716Z,998.00
2018-12-24T07:13:25.670Z,997.99
2018-12-24T07:14:25.655Z,998.14
2018-12-24T07:15:25.674Z,997.97
2018-12-24T07:16:25.637Z,998.07
2018-12-24T07:17:25.625Z,998.04
2018-12-24T07:18:25.640Z,998.11
2018-12-24T07:19:25.602Z,998.10
2018-12-24T07:20:25.619Z,998.16
2018-12-24T07:21:25.577Z,998.18
2018-12-24T07:22:25.566Z,998.17
2018-12-24T07:23:25.569Z,998.26
2018-12-24T07:24:25.549Z,998.23
2018-12-24T07:25:25.578Z,998.35
2018-12-24T07:26:25.561Z,998.27
2018-12-24T07:27:25.512Z,998.26
2018-12-24T07:28:25.500Z,998.29
2018-12-24T07:29:25.488Z,998.28
2018-12-24T07:30:25.479Z,998.35
2018-12-24T07:31:25.490Z,998.25
2018-12-24T07:32:25.469Z,998.26
2018-12-24T07:33:25.456Z,998.26
2018-12-24T07:34:32.456Z,998.25
2018-12-24T07:35:26.421Z,998.25
2018-12-24T07:36:25.437Z,998.30
2018-12-24T07:37:25.403Z,998.32
2018-12-24T07:38:25.393Z,998.32
2018-12-24T07:39:25.396Z,998.32
2018-12-24T07:40:25.374Z,998.32
2018-12-24T07:41:25.378Z,998.33
2018-12-24T07:42:25.345Z,998.42
2018-12-24T07:43:25.336Z,998.36
2018-12-24T07:44:25.331Z,998.37
2018-12-24T07:45:25.336Z,998.37
2018-12-24T07:46:25.330Z,998.45
2018-12-24T07:47:25.297Z,998.49
2018-12-24T07:48:25.280Z,998.49
2018-12-24T07:49:25.281Z,998.51
2018-12-24T07:50:25.258Z,998.50
2018-12-24T07:51:25.297Z,998.51
2018-12-24T07:52:25.236Z,998.53
2018-12-24T07:53:25.227Z,998.58
2018-12-24T07:54:25.211Z,998.58
2018-12-24T07:55:25.199Z,998.59
2018-12-24T07:56:25.188Z,998.54
2018-12-24T07:57:25.201Z,998.61
2018-12-24T07:58:25.173Z,998.65
2018-12-24T07:59:25.193Z,998.61
2018-12-24T08:00:25.144Z,998.68
2018-12-24T08:01:25.137Z,998.68
2018-12-24T08:02:25.147Z,998.74
2018-12-24T08:03:25.111Z,998.78
2018-12-24T08:04:25.103Z,998.70
2018-12-24T08:05:25.100Z,998.67
2018-12-24T08:06:25.079Z,998.72
2018-12-24T08:07:25.088Z,998.69
2018-12-24T08:08:25.056Z,998.75
2018-12-24T08:09:25.147Z,998.78
2018-12-24T08:10:25.046Z,998.80
2018-12-24T08:11:25.040Z,998.82
2018-12-24T08:12:25.038Z,998.82
2018-12-24T08:13:25.025Z,998.85
2018-12-24T08:14:32.741Z,998.91
2018-12-24T08:15:25.979Z,998.95
2018-12-24T08:16:24.975Z,998.91
2018-12-24T08:17:24.961Z,998.94
2018-12-24T08:18:24.979Z,998.94
2018-12-24T08:19:24.935Z,998.97
2018-12-24T08:20:24.928Z,998.94
2018-12-24T08:21:24.913Z,998.94
2018-12-24T08:22:24.908Z,998.98
2018-12-24T08:23:24.907Z,999.02
2018-12-24T08:24:24.909Z,999.03
2018-12-24T08:25:24.870Z,999.04
2018-12-24T08:26:24.867Z,999.09
2018-12-24T08:27:24.855Z,999.12
2018-12-24T08:28:24.845Z,999.15
2018-12-24T08:29:24.847Z,999.15
2018-12-24T08:30:24.830Z,999.21
2018-12-24T08:31:24.802Z,999.16
2018-12-24T08:32:24.790Z,999.25
2018-12-24T08:33:24.958Z,999.28
2018-12-24T08:34:24.791Z,999.28
2018-12-24T08:35:24.763Z,999.34
2018-12-24T08:36:24.772Z,999.34
2018-12-24T08:37:24.734Z,999.38
2018-12-24T08:38:24.722Z,999.38
2018-12-24T08:39:24.760Z,999.39
2018-12-24T08:40:24.704Z,999.43
2018-12-24T08:41:24.698Z,999.45
2018-12-24T08:42:24.785Z,999.42
2018-12-24T08:43:24.668Z,999.45
2018-12-24T08:44:24.661Z,999.44
2018-12-24T08:45:24.670Z,999.48
2018-12-24T08:46:24.636Z,999.50
2018-12-24T08:47:24.635Z,999.49
2018-12-24T08:48:24.615Z,999.52
2018-12-24T08:49:24.602Z,999.60
2018-12-24T08:50:24.617Z,999.59
2018-12-24T08:51:24.584Z,999.62
2018-12-24T08:52:24.571Z,999.64
2018-12-24T08:53:24.584Z,999.64
2018-12-24T08:54:24.548Z,999.61
2018-12-24T08:55:24.560Z,999.68
2018-12-24T08:56:24.528Z,999.78
2018-12-24T08:57:24.521Z,999.73
2018-12-24T08:58:24.508Z,999.84
2018-12-24T08:59:24.504Z,999.82
2018-12-24T09:00:24.516Z,999.86
2018-12-24T09:01:24.477Z,999.88
2018-12-24T09:02:24.460Z,999.96
2018-12-24T09:03:24.448Z,999.99
2018-12-24T09:04:24.438Z,1000.00
2018-12-24T09:05:24.437Z,999.99
2018-12-24T09:06:24.441Z,1000.02
2018-12-24T09:07:24.405Z,1000.08
2018-12-24T09:08:24.396Z,1000.08
2018-12-24T09:09:24.384Z,1000.11
2018-12-24T09:10:24.374Z,1000.21
2018-12-24T09:11:24.386Z,1000.20
2018-12-24T09:12:24.357Z,1000.23
2018-12-24T09:13:24.340Z,1000.30
2018-12-24T09:14:24.330Z,1000.30
2018-12-24T09:15:24.317Z,1000.35
2018-12-24T09:16:24.338Z,1000.43
2018-12-24T09:17:24.295Z,1000.43
2018-12-24T09:18:24.294Z,1000.47
2018-12-24T09:19:24.274Z,1000.51
2018-12-24T09:20:24.264Z,1000.62
2018-12-24T09:21:24.286Z,1000.65
2018-12-24T09:22:24.246Z,1000.71
2018-12-24T09:23:24.231Z,1000.72
2018-12-24T09:24:24.228Z,1000.77
2018-12-24T09:25:24.216Z,1000.78
2018-12-24T09:26:24.203Z,1000.72
2018-12-24T09:27:24.210Z,1000.75
2018-12-24T09:28:24.179Z,1000.76
2018-12-24T09:29:24.166Z,1000.77
2018-12-24T09:30:24.159Z,1000.82
2018-12-24T09:31:24.143Z,1000.83
2018-12-24T09:32:24.158Z,1000.80
2018-12-24T09:33:24.121Z,1000.77
2018-12-24T09:34:24.112Z,1000.72
2018-12-24T09:35:24.098Z,1000.74
2018-12-24T09:36:24.102Z,1000.82
2018-12-24T09:37:24.101Z,1000.79
2018-12-24T09:38:24.067Z,1000.84
2018-12-24T09:39:24.055Z,1000.79
2018-12-24T09:40:24.044Z,1000.94
2018-12-24T09:41:24.034Z,1000.97
2018-12-24T09:42:24.073Z,1001.01
2018-12-24T09:43:24.011Z,1001.05
2018-12-24T09:44:24.002Z,1001.08
2018-12-24T09:45:23.990Z,1001.10
2018-12-24T09:46:23.979Z,1001.18
2018-12-24T09:47:23.973Z,1001.12
2018-12-24T09:48:23.999Z,1001.24
2018-12-24T09:49:23.945Z,1001.25
2018-12-24T09:50:23.935Z,1001.28
2018-12-24T09:51:23.923Z,1001.28
2018-12-24T09:52:23.924Z,1001.30
2018-12-24T09:53:23.929Z,1001.34
2018-12-24T09:54:23.897Z,1001.34
2018-12-24T09:55:23.882Z,1001.39
2018-12-24T09:56:23.868Z,1001.43
2018-12-24T09:57:23.864Z,1001.42
2018-12-24T09:58:23.870Z,1001.49
2018-12-24T09:59:23.839Z,1001.50
2018-12-24T10:00:23.852Z,1001.51
2018-12-24T10:01:23.814Z,1001.55
2018-12-24T10:02:23.806Z,1001.54
2018-12-24T10:03:23.818Z,1001.57
2018-12-24T10:04:23.782Z,1001.58
2018-12-24T10:05:23.775Z,1001.62
2018-12-24T10:06:23.766Z,1001.69
2018-12-24T10:07:23.771Z,1001.77
2018-12-24T10:08:23.780Z,1001.72
2018-12-24T10:09:23.726Z,1001.74
2018-12-24T10:10:23.715Z,1001.78
2018-12-24T10:11:23.707Z,1001.78
2018-12-24T10:12:23.695Z,1001.79
2018-12-24T10:13:23.687Z,1001.83
2018-12-24T10:14:23.696Z,1001.84
2018-12-24T10:15:23.659Z,1001.83
2018-12-24T10:16:23.649Z,1001.88
2018-12-24T10:17:23.638Z,1001.90
2018-12-24T10:18:23.635Z,1001.88
2018-12-24T10:19:23.657Z,1001.92
2018-12-24T10:20:23.604Z,1001.88
2018-12-24T10:21:23.598Z,1001.86
2018-12-24T10:22:23.585Z,1001.86
2018-12-24T10:23:23.570Z,1001.88
2018-12-24T10:24:23.598Z,1001.86
2018-12-24T10:25:23.570Z,1001.87
2018-12-24T10:26:23.538Z,1001.87
2018-12-24T10:27:23.528Z,1001.90
2018-12-24T10:28:23.518Z,1001.91
2018-12-24T10:29:23.506Z,1001.91
2018-12-24T10:30:23.518Z,1001.97
2018-12-24T10:31:23.505Z,1002.00
2018-12-24T10:32:23.473Z,1001.96
2018-12-24T10:33:23.462Z,1002.02
2018-12-24T10:34:23.450Z,1002.01
2018-12-24T10:35:23.471Z,1001.95
2018-12-24T10:36:23.431Z,1001.94
2018-12-24T10:37:23.427Z,1001.94
2018-12-24T10:38:23.422Z,1001.88
2018-12-24T10:39:23.395Z,1001.91
2018-12-24T10:40:23.405Z,1001.92
2018-12-24T10:41:23.374Z,1001.91
2018-12-24T10:42:23.364Z,1001.95
2018-12-24T10:43:23.353Z,1001.90
2018-12-24T10:44:23.348Z,1001.88
2018-12-24T10:45:23.353Z,1001.92
2018-12-24T10:46:23.317Z,1001.89
2018-12-24T10:47:23.306Z,1001.87
2018-12-24T10:48:23.296Z,1001.88
2018-12-24T10:49:23.284Z,1001.84
2018-12-24T10:50:23.414Z,1001.89
2018-12-24T10:51:23.271Z,1001.90
2018-12-24T10:52:23.251Z,1001.85
2018-12-24T10:53:23.240Z,1001.86
2018-12-24T10:54:23.231Z,1001.86
2018-12-24T10:55:23.219Z,1001.97
2018-12-24T10:56:23.233Z,1001.91
2018-12-24T10:57:23.210Z,1001.93
2018-12-24T10:58:23.185Z,1001.89
2018-12-24T10:59:23.174Z,1001.90
2018-12-24T11:00:23.166Z,1001.91
2018-12-24T11:01:23.174Z,1001.89
2018-12-24T11:02:23.140Z,1001.81
2018-12-24T11:03:23.139Z,1001.78
2018-12-24T11:04:23.121Z,1001.80
2018-12-24T11:05:23.107Z,1001.83
2018-12-24T11:06:23.135Z,1001.78
2018-12-24T11:07:23.090Z,1001.73
2018-12-24T11:08:23.076Z,1001.72
2018-12-24T11:09:23.064Z,1001.77
2018-12-24T11:10:23.070Z,1001.77
2018-12-24T11:11:23.043Z,1001.73
2018-12-24T11:12:23.088Z,1001.67
2018-12-24T11:13:23.045Z,1001.69
2018-12-24T11:14:23.009Z,1001.73
2018-12-24T11:15:25.244Z,1001.68
2018-12-24T11:16:23.001Z,1001.69
2018-12-24T11:17:23.025Z,1001.71
2018-12-24T11:18:23.044Z,1001.64
2018-12-24T11:19:22.957Z,1001.70
2018-12-24T11:20:22.949Z,1001.72
2018-12-24T11:21:22.941Z,1001.71
2018-12-24T11:22:22.977Z,1001.72
2018-12-24T11:23:22.913Z,1001.75
2018-12-24T11:24:22.899Z,1001.75
2018-12-24T11:25:22.888Z,1001.78
2018-12-24T11:26:22.878Z,1001.75
2018-12-24T11:27:22.898Z,1001.72
2018-12-24T11:28:22.854Z,1001.75
2018-12-24T11:29:22.872Z,1001.75
2018-12-24T11:30:22.838Z,1001.71
2018-12-24T11:31:22.822Z,1001.73
2018-12-24T11:32:22.834Z,1001.67
2018-12-24T11:33:22.845Z,1001.77
2018-12-24T11:34:22.795Z,1001.72
2018-12-24T11:35:22.784Z,1001.78
2018-12-24T11:36:22.771Z,1001.75
2018-12-24T11:37:22.790Z,1001.74
2018-12-24T11:38:22.743Z,1001.78
2018-12-24T11:39:22.732Z,1001.76
2018-12-24T11:40:22.720Z,1001.83
2018-12-24T11:41:22.717Z,1001.86
2018-12-24T11:42:22.709Z,1001.82
2018-12-24T11:43:22.712Z,1001.82
2018-12-24T11:44:22.680Z,1001.83
2018-12-24T11:45:22.666Z,1001.87
2018-12-24T11:46:22.770Z,1001.89
2018-12-24T11:47:22.644Z,1001.90
2018-12-24T11:48:22.659Z,1001.95
2018-12-24T11:49:22.621Z,1001.97
2018-12-24T11:50:22.611Z,1001.90
2018-12-24T11:51:22.599Z,1001.96
2018-12-24T11:52:22.589Z,1001.96
2018-12-24T11:53:22.609Z,1001.99
2018-12-24T11:54:22.567Z,1001.97
2018-12-24T11:55:22.570Z,1001.99
2018-12-24T11:56:22.546Z,1001.99
2018-12-24T11:57:22.532Z,1001.88
2018-12-24T11:58:22.656Z,1001.94
2018-12-24T11:59:22.517Z,1001.88
2018-12-24T12:00:22.507Z,1001.93
2018-12-24T12:01:22.489Z,1001.91
2018-12-24T12:02:22.480Z,1001.93
2018-12-24T12:03:22.473Z,1001.96
2018-12-24T12:04:22.483Z,1001.94
2018-12-24T12:05:22.453Z,1001.96
2018-12-24T12:06:22.436Z,1002.00
2018-12-24T12:07:22.427Z,1001.97
2018-12-24T12:08:22.412Z,1002.00
2018-12-24T12:09:22.425Z,1001.98
2018-12-24T12:10:22.392Z,1001.98
2018-12-24T12:11:22.382Z,1001.97
2018-12-24T12:12:22.372Z,1001.95
2018-12-24T12:13:22.373Z,1002.05
2018-12-24T12:14:22.377Z,1001.98
2018-12-24T12:15:22.362Z,1002.02
2018-12-24T12:16:22.359Z,1002.03
2018-12-24T12:17:22.341Z,1002.10
2018-12-24T12:18:22.302Z,1002.11
2018-12-24T12:19:22.327Z,1002.10
2018-12-24T12:20:22.935Z,1002.02
2018-12-24T12:21:22.301Z,1002.07
2018-12-24T12:22:22.288Z,1002.06